sensor_id;sensor_type;location;lat;lon;timestamp;pressure;altitude;pressure_sealevel;temperature;humidity
73422;BME280;61637;47.760;-122.022;2023-03-01T00:00:01;100575.783;;;2.7;unknown
73422;BME280;61637;47.760;-122.022;2023-03-01T00:02:01;100575.783;;;2.6;unknown
73422;BME280;61637;47.760;-122.022;2023-03-01T00:04:01;100575.783;;;2.6;unknown
73422;BME280;61637;47.760;-122.022;2023-03-01T00:06:01;100575.783;;;2.6;unknown
73422;BME280;61637;47.760;-122.022;2023-03-01T00:08:01;100575.783;;;2.6;unknown
73422;BME280;61637;47.760;-122.022;2023-03-01T00:10:01;100575.783;;;2.6;unknown
73422;BME280;61637;47.760;-122.022;2023-03-01T00:12:01;100575.783;;;2.6;unknown
73422;BME280;61637;47.760;-122.022;2023-03-01T00:14:02;100575.783;;;2.6;unknown
73422;BME280;61637;47.760;-122.022;2023-03-01T00:16:02;100575.783;;;2.5;unknown
73422;BME280;61637;47.760;-122.022;2023-03-01T00:18:01;100575.783;;;2.5;unknown
73422;BME280;61637;47.760;-122.022;2023-03-01T00:20:01;100575.783;;;2.4;unknown
73422;BME280;61637;47.760;-122.022;2023-03-01T00:22:01;100575.783;;;2.4;unknown
73422;BME280;61637;47.760;-122.022;2023-03-01T00:24:01;100575.783;;;2.4;unknown
73422;BME280;61637;47.760;-122.022;2023-03-01T00:26:01;100575.783;;;2.4;unknown
73422;BME280;61637;47.760;-122.022;2023-03-01T00:28:01;100575.783;;;2.4;unknown
73422;BME280;61637;47.760;-122.022;2023-03-01T00:30:01;100575.783;;;2.4;unknown
73422;BME280;61637;47.760;-122.022;2023-03-01T00:32:01;100575.783;;;2.3;unknown
73422;BME280;61637;47.760;-122.022;2023-03-01T00:34:01;100575.783;;;2.3;unknown
73422;BME280;61637;47.760;-122.022;2023-03-01T00:36:01;100575.783;;;2.3;unknown
73422;BME280;61637;47.760;-122.022;2023-03-01T00:38:01;100575.783;;;2.3;unknown
73422;BME280;61637;47.760;-122.022;2023-03-01T00:40:01;100575.783;;;2.3;unknown
73422;BME280;61637;47.760;-122.022;2023-03-01T00:42:01;100575.783;;;2.3;unknown
73422;BME280;61637;47.760;-122.022;2023-03-01T00:44:01;100575.783;;;2.3;unknown
73422;BME280;61637;47.760;-122.022;2023-03-01T00:46:01;100575.783;;;2.3;unknown
73422;BME280;61637;47.760;-122.022;2023-03-01T00:48:01;100575.783;;;2.3;unknown
73422;BME280;61637;47.760;-122.022;2023-03-01T00:50:01;100575.783;;;2.3;unknown
73422;BME280;61637;47.760;-122.022;2023-03-01T00:52:01;100575.783;;;2.3;unknown
73422;BME280;61637;47.760;-122.022;2023-03-01T00:54:01;100575.783;;;2.3;unknown
73422;BME280;61637;47.760;-122.022;2023-03-01T00:56:01;100575.783;;;2.3;unknown
73422;BME280;61637;47.760;-122.022;2023-03-01T00:58:01;100575.783;;;2.3;unknown
73422;BME280;61637;47.760;-122.022;2023-03-01T01:00:01;100575.783;;;2.3;unknown
73422;BME280;61637;47.760;-122.022;2023-03-01T01:02:01;100575.783;;;2.3;unknown
73422;BME280;61637;47.760;-122.022;2023-03-01T01:04:02;100575.783;;;2.3;unknown
73422;BME280;61637;47.760;-122.022;2023-03-01T01:06:01;100575.783;;;2.3;unknown
73422;BME280;61637;47.760;-122.022;2023-03-01T01:08:01;100575.783;;;2.3;unknown
73422;BME280;61637;47.760;-122.022;2023-03-01T01:10:01;100575.783;;;2.3;unknown
73422;BME280;61637;47.760;-122.022;2023-03-01T01:12:01;100575.783;;;2.2;unknown
73422;BME280;61637;47.760;-122.022;2023-03-01T01:14:01;100575.783;;;2.2;unknown
73422;BME280;61637;47.760;-122.022;2023-03-01T01:16:01;100575.783;;;2.2;unknown
73422;BME280;61637;47.760;-122.022;2023-03-01T01:18:01;100575.783;;;2.2;unknown
73422;BME280;61637;47.760;-122.022;2023-03-01T01:20:01;100575.783;;;2.2;unknown
73422;BME280;61637;47.760;-122.022;2023-03-01T01:22:01;100575.783;;;2.2;unknown
73422;BME280;61637;47.760;-122.022;2023-03-01T01:24:02;100575.783;;;2.2;unknown
73422;BME280;61637;47.760;-122.022;2023-03-01T01:26:04;100575.783;;;2.1;unknown
73422;BME280;61637;47.760;-122.022;2023-03-01T01:28:01;100575.783;;;2.1;unknown
73422;BME280;61637;47.760;-122.022;2023-03-01T01:30:01;100575.783;;;2.1;unknown
73422;BME280;61637;47.760;-122.022;2023-03-01T01:32:01;100575.783;;;2.0;unknown
73422;BME280;61637;47.760;-122.022;2023-03-01T01:34:01;100575.783;;;1.9;unknown
73422;BME280;61637;47.760;-122.022;2023-03-01T01:36:01;100575.783;;;1.9;unknown
73422;BME280;61637;47.760;-122.022;2023-03-01T01:38:01;100575.783;;;1.8;unknown
73422;BME280;61637;47.760;-122.022;2023-03-01T01:40:01;100575.783;;;1.8;unknown
73422;BME280;61637;47.760;-122.022;2023-03-01T01:42:01;100575.783;;;1.8;unknown
73422;BME280;61637;47.760;-122.022;2023-03-01T01:44:10;100575.783;;;1.7;unknown
73422;BME280;61637;47.760;-122.022;2023-03-01T01:46:02;100575.783;;;1.7;unknown
73422;BME280;61637;47.760;-122.022;2023-03-01T01:48:02;100575.783;;;1.6;unknown
73422;BME280;61637;47.760;-122.022;2023-03-01T01:50:01;100575.783;;;1.5;unknown
73422;BME280;61637;47.760;-122.022;2023-03-01T01:52:03;100575.783;;;1.4;unknown
73422;BME280;61637;47.760;-122.022;2023-03-01T01:54:01;100575.783;;;1.4;unknown
73422;BME280;61637;47.760;-122.022;2023-03-01T01:56:01;100575.783;;;1.3;unknown
73422;BME280;61637;47.760;-122.022;2023-03-01T01:58:02;100575.783;;;1.2;unknown
73422;BME280;61637;47.760;-122.022;2023-03-01T02:00:03;100575.783;;;1.2;unknown
73422;BME280;61637;47.760;-122.022;2023-03-01T02:02:01;100575.783;;;1.2;unknown
73422;BME280;61637;47.760;-122.022;2023-03-01T02:04:01;100575.783;;;1.1;unknown
73422;BME280;61637;47.760;-122.022;2023-03-01T02:06:01;100575.783;;;1.1;unknown
73422;BME280;61637;47.760;-122.022;2023-03-01T02:08:01;100575.783;;;1.1;unknown
73422;BME280;61637;47.760;-122.022;2023-03-01T02:10:01;100575.783;;;0.9;unknown
73422;BME280;61637;47.760;-122.022;2023-03-01T02:12:01;100575.783;;;0.9;unknown
73422;BME280;61637;47.760;-122.022;2023-03-01T02:14:01;100575.783;;;0.8;unknown
73422;BME280;61637;47.760;-122.022;2023-03-01T02:16:03;100575.783;;;0.8;unknown
73422;BME280;61637;47.760;-122.022;2023-03-01T02:18:01;100575.783;;;0.7;unknown
73422;BME280;61637;47.760;-122.022;2023-03-01T02:20:04;100575.783;;;0.7;unknown
73422;BME280;61637;47.760;-122.022;2023-03-01T02:22:02;100575.783;;;0.7;unknown
73422;BME280;61637;47.760;-122.022;2023-03-01T02:24:02;100575.783;;;0.7;unknown
73422;BME280;61637;47.760;-122.022;2023-03-01T02:26:01;100575.783;;;0.6;unknown
73422;BME280;61637;47.760;-122.022;2023-03-01T02:28:04;100575.783;;;0.6;unknown
73422;BME280;61637;47.760;-122.022;2023-03-01T02:30:01;100575.783;;;0.6;unknown
73422;BME280;61637;47.760;-122.022;2023-03-01T02:32:01;100575.783;;;0.5;unknown
73422;BME280;61637;47.760;-122.022;2023-03-01T02:34:01;100575.783;;;0.4;unknown
73422;BME280;61637;47.760;-122.022;2023-03-01T02:36:01;100575.783;;;0.4;unknown
73422;BME280;61637;47.760;-122.022;2023-03-01T02:38:01;100575.783;;;0.4;unknown
73422;BME280;61637;47.760;-122.022;2023-03-01T02:40:02;100575.783;;;0.4;unknown
73422;BME280;61637;47.760;-122.022;2023-03-01T02:42:01;100575.783;;;0.3;unknown
73422;BME280;61637;47.760;-122.022;2023-03-01T02:44:01;100575.783;;;0.3;unknown
73422;BME280;61637;47.760;-122.022;2023-03-01T02:46:03;100575.783;;;0.3;unknown
73422;BME280;61637;47.760;-122.022;2023-03-01T02:48:01;100575.783;;;0.3;unknown
73422;BME280;61637;47.760;-122.022;2023-03-01T02:50:01;100914.42199999999;;;0.2;unknown
73422;BME280;61637;47.760;-122.022;2023-03-01T02:52:05;100575.783;;;0.2;unknown
73422;BME280;61637;47.760;-122.022;2023-03-01T02:54:05;100914.42199999999;;;0.2;unknown
73422;BME280;61637;47.760;-122.022;2023-03-01T02:56:01;100914.42199999999;;;0.1;unknown
73422;BME280;61637;47.760;-122.022;2023-03-01T02:58:01;100914.42199999999;;;0.1;unknown
73422;BME280;61637;47.760;-122.022;2023-03-01T03:00:03;100914.42199999999;;;0.1;unknown
73422;BME280;61637;47.760;-122.022;2023-03-01T03:02:01;100914.42199999999;;;0.0;unknown
73422;BME280;61637;47.760;-122.022;2023-03-01T03:04:01;100914.42199999999;;;0.0;unknown
73422;BME280;61637;47.760;-122.022;2023-03-01T03:06:01;100914.42199999999;;;-0.1;unknown
73422;BME280;61637;47.760;-122.022;2023-03-01T03:08:02;100914.42199999999;;;-0.1;unknown
73422;BME280;61637;47.760;-122.022;2023-03-01T03:10:01;100914.42199999999;;;-0.1;unknown
73422;BME280;61637;47.760;-122.022;2023-03-01T03:12:01;100914.42199999999;;;-0.1;unknown
73422;BME280;61637;47.760;-122.022;2023-03-01T03:14:01;100914.42199999999;;;-0.1;unknown
73422;BME280;61637;47.760;-122.022;2023-03-01T03:16:01;100914.42199999999;;;-0.2;unknown
73422;BME280;61637;47.760;-122.022;2023-03-01T03:18:01;100914.42199999999;;;-0.2;unknown
73422;BME280;61637;47.760;-122.022;2023-03-01T03:20:01;100914.42199999999;;;-0.2;unknown
73422;BME280;61637;47.760;-122.022;2023-03-01T03:22:01;100914.42199999999;;;-0.2;unknown
73422;BME280;61637;47.760;-122.022;2023-03-01T03:24:01;100914.42199999999;;;-0.2;unknown
73422;BME280;61637;47.760;-122.022;2023-03-01T03:26:01;100914.42199999999;;;-0.3;unknown
73422;BME280;61637;47.760;-122.022;2023-03-01T03:28:01;100914.42199999999;;;-0.3;unknown
73422;BME280;61637;47.760;-122.022;2023-03-01T03:30:01;100914.42199999999;;;-0.3;unknown
73422;BME280;61637;47.760;-122.022;2023-03-01T03:32:01;100914.42199999999;;;-0.4;unknown
73422;BME280;61637;47.760;-122.022;2023-03-01T03:34:01;100914.42199999999;;;-0.4;unknown
73422;BME280;61637;47.760;-122.022;2023-03-01T03:36:01;100914.42199999999;;;-0.4;unknown
73422;BME280;61637;47.760;-122.022;2023-03-01T03:38:03;100914.42199999999;;;-0.4;unknown
73422;BME280;61637;47.760;-122.022;2023-03-01T03:40:01;100914.42199999999;;;-0.4;unknown
73422;BME280;61637;47.760;-122.022;2023-03-01T03:42:01;100914.42199999999;;;-0.4;unknown
73422;BME280;61637;47.760;-122.022;2023-03-01T03:44:01;100914.42199999999;;;-0.4;unknown
73422;BME280;61637;47.760;-122.022;2023-03-01T03:46:01;100914.42199999999;;;-0.5;unknown
73422;BME280;61637;47.760;-122.022;2023-03-01T03:48:01;100914.42199999999;;;-0.5;unknown
73422;BME280;61637;47.760;-122.022;2023-03-01T03:50:01;100914.42199999999;;;-0.5;unknown
73422;BME280;61637;47.760;-122.022;2023-03-01T03:52:01;100914.42199999999;;;-0.5;unknown
73422;BME280;61637;47.760;-122.022;2023-03-01T03:54:01;100914.42199999999;;;-0.5;unknown
73422;BME280;61637;47.760;-122.022;2023-03-01T03:56:01;100914.42199999999;;;-0.5;unknown
73422;BME280;61637;47.760;-122.022;2023-03-01T03:58:01;100914.42199999999;;;-0.5;unknown
73422;BME280;61637;47.760;-122.022;2023-03-01T04:00:01;100914.42199999999;;;-0.4;unknown
73422;BME280;61637;47.760;-122.022;2023-03-01T04:02:01;100914.42199999999;;;-0.4;unknown
73422;BME280;61637;47.760;-122.022;2023-03-01T04:04:01;100914.42199999999;;;-0.3;unknown
73422;BME280;61637;47.760;-122.022;2023-03-01T04:06:01;100914.42199999999;;;-0.3;unknown
73422;BME280;61637;47.760;-122.022;2023-03-01T04:08:01;100914.42199999999;;;-0.3;unknown
73422;BME280;61637;47.760;-122.022;2023-03-01T04:10:01;100914.42199999999;;;-0.3;unknown
73422;BME280;61637;47.760;-122.022;2023-03-01T04:12:01;100914.42199999999;;;-0.3;unknown
73422;BME280;61637;47.760;-122.022;2023-03-01T04:14:01;100914.42199999999;;;-0.2;unknown
73422;BME280;61637;47.760;-122.022;2023-03-01T04:16:01;100914.42199999999;;;-0.2;unknown
73422;BME280;61637;47.760;-122.022;2023-03-01T04:18:01;100914.42199999999;;;-0.2;unknown
73422;BME280;61637;47.760;-122.022;2023-03-01T04:20:01;100914.42199999999;;;-0.2;unknown
73422;BME280;61637;47.760;-122.022;2023-03-01T04:22:01;100914.42199999999;;;-0.2;unknown
73422;BME280;61637;47.760;-122.022;2023-03-01T04:24:01;100914.42199999999;;;-0.2;unknown
73422;BME280;61637;47.760;-122.022;2023-03-01T04:26:01;100914.42199999999;;;-0.2;unknown
73422;BME280;61637;47.760;-122.022;2023-03-01T04:28:01;100914.42199999999;;;-0.2;unknown
73422;BME280;61637;47.760;-122.022;2023-03-01T04:30:01;100914.42199999999;;;-0.1;unknown
73422;BME280;61637;47.760;-122.022;2023-03-01T04:32:01;100914.42199999999;;;-0.1;unknown
73422;BME280;61637;47.760;-122.022;2023-03-01T04:34:01;100914.42199999999;;;-0.1;unknown
73422;BME280;61637;47.760;-122.022;2023-03-01T04:36:01;100914.42199999999;;;-0.1;unknown
73422;BME280;61637;47.760;-122.022;2023-03-01T04:38:01;100914.42199999999;;;-0.1;unknown
73422;BME280;61637;47.760;-122.022;2023-03-01T04:40:01;100914.42199999999;;;-0.1;unknown
73422;BME280;61637;47.760;-122.022;2023-03-01T04:42:01;100914.42199999999;;;-0.1;unknown
73422;BME280;61637;47.760;-122.022;2023-03-01T04:44:01;100914.42199999999;;;-0.1;unknown
73422;BME280;61637;47.760;-122.022;2023-03-01T04:46:01;100914.42199999999;;;-0.1;unknown
73422;BME280;61637;47.760;-122.022;2023-03-01T04:48:01;100914.42199999999;;;-0.1;unknown
73422;BME280;61637;47.760;-122.022;2023-03-01T04:50:01;100914.42199999999;;;-0.1;unknown
73422;BME280;61637;47.760;-122.022;2023-03-01T04:52:01;100914.42199999999;;;-0.2;unknown
73422;BME280;61637;47.760;-122.022;2023-03-01T04:54:01;100914.42199999999;;;-0.2;unknown
73422;BME280;61637;47.760;-122.022;2023-03-01T04:56:01;100914.42199999999;;;-0.2;unknown
73422;BME280;61637;47.760;-122.022;2023-03-01T04:58:01;100914.42199999999;;;-0.2;unknown
73422;BME280;61637;47.760;-122.022;2023-03-01T05:00:01;100914.42199999999;;;-0.3;unknown
73422;BME280;61637;47.760;-122.022;2023-03-01T05:02:01;100914.42199999999;;;-0.3;unknown
73422;BME280;61637;47.760;-122.022;2023-03-01T05:04:01;100914.42199999999;;;-0.3;unknown
73422;BME280;61637;47.760;-122.022;2023-03-01T05:06:01;100914.42199999999;;;-0.4;unknown
73422;BME280;61637;47.760;-122.022;2023-03-01T05:08:02;100914.42199999999;;;-0.4;unknown
73422;BME280;61637;47.760;-122.022;2023-03-01T05:10:01;100914.42199999999;;;-0.4;unknown
73422;BME280;61637;47.760;-122.022;2023-03-01T05:12:01;100914.42199999999;;;-0.5;unknown
73422;BME280;61637;47.760;-122.022;2023-03-01T05:14:01;100914.42199999999;;;-0.5;unknown
73422;BME280;61637;47.760;-122.022;2023-03-01T05:16:01;100914.42199999999;;;-0.5;unknown
73422;BME280;61637;47.760;-122.022;2023-03-01T05:18:01;100914.42199999999;;;-0.6;unknown
73422;BME280;61637;47.760;-122.022;2023-03-01T05:20:01;100914.42199999999;;;-0.6;unknown
73422;BME280;61637;47.760;-122.022;2023-03-01T05:22:01;100914.42199999999;;;-0.6;unknown
73422;BME280;61637;47.760;-122.022;2023-03-01T05:24:01;100914.42199999999;;;-0.6;unknown
73422;BME280;61637;47.760;-122.022;2023-03-01T05:26:01;100914.42199999999;;;-0.6;unknown
73422;BME280;61637;47.760;-122.022;2023-03-01T05:28:01;100914.42199999999;;;-0.6;unknown
73422;BME280;61637;47.760;-122.022;2023-03-01T05:30:01;100914.42199999999;;;-0.6;unknown
73422;BME280;61637;47.760;-122.022;2023-03-01T05:32:01;100914.42199999999;;;-0.6;unknown
73422;BME280;61637;47.760;-122.022;2023-03-01T05:34:01;100914.42199999999;;;-0.6;unknown
73422;BME280;61637;47.760;-122.022;2023-03-01T05:36:01;100914.42199999999;;;-0.6;unknown
73422;BME280;61637;47.760;-122.022;2023-03-01T05:38:01;100914.42199999999;;;-0.5;unknown
73422;BME280;61637;47.760;-122.022;2023-03-01T05:40:01;100914.42199999999;;;-0.5;unknown
73422;BME280;61637;47.760;-122.022;2023-03-01T05:42:01;100914.42199999999;;;-0.6;unknown
73422;BME280;61637;47.760;-122.022;2023-03-01T05:44:01;100914.42199999999;;;-0.5;unknown
73422;BME280;61637;47.760;-122.022;2023-03-01T05:46:01;100914.42199999999;;;-0.5;unknown
73422;BME280;61637;47.760;-122.022;2023-03-01T05:48:01;100914.42199999999;;;-0.5;unknown
73422;BME280;61637;47.760;-122.022;2023-03-01T05:50:01;100914.42199999999;;;-0.6;unknown
73422;BME280;61637;47.760;-122.022;2023-03-01T05:52:01;100914.42199999999;;;-0.5;unknown
73422;BME280;61637;47.760;-122.022;2023-03-01T05:54:01;100914.42199999999;;;-0.6;unknown
73422;BME280;61637;47.760;-122.022;2023-03-01T05:56:02;100914.42199999999;;;-0.5;unknown
73422;BME280;61637;47.760;-122.022;2023-03-01T05:58:01;100914.42199999999;;;-0.5;unknown
73422;BME280;61637;47.760;-122.022;2023-03-01T06:00:01;100914.42199999999;;;-0.5;unknown
73422;BME280;61637;47.760;-122.022;2023-03-01T06:02:01;100914.42199999999;;;-0.5;unknown
73422;BME280;61637;47.760;-122.022;2023-03-01T06:04:01;100914.42199999999;;;-0.4;unknown
73422;BME280;61637;47.760;-122.022;2023-03-01T06:06:01;100914.42199999999;;;-0.4;unknown
73422;BME280;61637;47.760;-122.022;2023-03-01T06:08:01;100914.42199999999;;;-0.4;unknown
73422;BME280;61637;47.760;-122.022;2023-03-01T06:10:01;100914.42199999999;;;-0.4;unknown
73422;BME280;61637;47.760;-122.022;2023-03-01T06:12:01;100914.42199999999;;;-0.4;unknown
73422;BME280;61637;47.760;-122.022;2023-03-01T06:14:01;100914.42199999999;;;-0.3;unknown
73422;BME280;61637;47.760;-122.022;2023-03-01T06:16:03;100914.42199999999;;;-0.3;unknown
73422;BME280;61637;47.760;-122.022;2023-03-01T06:18:01;100914.42199999999;;;-0.2;unknown
73422;BME280;61637;47.760;-122.022;2023-03-01T06:20:01;100914.42199999999;;;-0.2;unknown
73422;BME280;61637;47.760;-122.022;2023-03-01T06:22:01;100914.42199999999;;;-0.2;unknown
73422;BME280;61637;47.760;-122.022;2023-03-01T06:24:01;100914.42199999999;;;-0.2;unknown
73422;BME280;61637;47.760;-122.022;2023-03-01T06:26:04;100914.42199999999;;;-0.2;unknown
73422;BME280;61637;47.760;-122.022;2023-03-01T06:28:01;100914.42199999999;;;-0.2;unknown
73422;BME280;61637;47.760;-122.022;2023-03-01T06:30:01;100914.42199999999;;;-0.2;unknown
73422;BME280;61637;47.760;-122.022;2023-03-01T06:32:01;100914.42199999999;;;-0.2;unknown
73422;BME280;61637;47.760;-122.022;2023-03-01T06:34:01;100914.42199999999;;;-0.1;unknown
73422;BME280;61637;47.760;-122.022;2023-03-01T06:36:01;100914.42199999999;;;-0.2;unknown
73422;BME280;61637;47.760;-122.022;2023-03-01T06:38:01;101253.06099999999;;;-0.1;unknown
73422;BME280;61637;47.760;-122.022;2023-03-01T06:40:01;101253.06099999999;;;-0.1;unknown
73422;BME280;61637;47.760;-122.022;2023-03-01T06:42:01;101253.06099999999;;;-0.1;unknown
73422;BME280;61637;47.760;-122.022;2023-03-01T06:44:01;101253.06099999999;;;-0.1;unknown
73422;BME280;61637;47.760;-122.022;2023-03-01T06:46:03;101253.06099999999;;;-0.1;unknown
73422;BME280;61637;47.760;-122.022;2023-03-01T06:48:02;101253.06099999999;;;-0.1;unknown
73422;BME280;61637;47.760;-122.022;2023-03-01T06:50:01;101253.06099999999;;;-0.1;unknown
73422;BME280;61637;47.760;-122.022;2023-03-01T06:52:01;101253.06099999999;;;-0.1;unknown
73422;BME280;61637;47.760;-122.022;2023-03-01T06:54:01;101253.06099999999;;;0.0;unknown
73422;BME280;61637;47.760;-122.022;2023-03-01T06:56:01;101253.06099999999;;;-0.1;unknown
73422;BME280;61637;47.760;-122.022;2023-03-01T06:58:01;101253.06099999999;;;-0.1;unknown
73422;BME280;61637;47.760;-122.022;2023-03-01T07:00:01;101253.06099999999;;;-0.1;unknown
73422;BME280;61637;47.760;-122.022;2023-03-01T07:02:01;101253.06099999999;;;0.0;unknown
73422;BME280;61637;47.760;-122.022;2023-03-01T07:04:01;101253.06099999999;;;0.1;unknown
73422;BME280;61637;47.760;-122.022;2023-03-01T07:06:01;101253.06099999999;;;0.0;unknown
73422;BME280;61637;47.760;-122.022;2023-03-01T07:08:01;101253.06099999999;;;0.0;unknown
73422;BME280;61637;47.760;-122.022;2023-03-01T07:10:01;101253.06099999999;;;0.1;unknown
73422;BME280;61637;47.760;-122.022;2023-03-01T07:12:01;101253.06099999999;;;0.1;unknown
73422;BME280;61637;47.760;-122.022;2023-03-01T07:14:01;101253.06099999999;;;0.1;unknown
73422;BME280;61637;47.760;-122.022;2023-03-01T07:16:01;101253.06099999999;;;0.1;unknown
73422;BME280;61637;47.760;-122.022;2023-03-01T07:18:01;101253.06099999999;;;0.1;unknown
73422;BME280;61637;47.760;-122.022;2023-03-01T07:20:01;101253.06099999999;;;0.1;unknown
73422;BME280;61637;47.760;-122.022;2023-03-01T07:22:01;101253.06099999999;;;0.0;unknown
73422;BME280;61637;47.760;-122.022;2023-03-01T07:24:01;101253.06099999999;;;0.0;unknown
73422;BME280;61637;47.760;-122.022;2023-03-01T07:26:01;101253.06099999999;;;-0.1;unknown
73422;BME280;61637;47.760;-122.022;2023-03-01T07:28:01;101253.06099999999;;;-0.1;unknown
73422;BME280;61637;47.760;-122.022;2023-03-01T07:30:01;101253.06099999999;;;-0.1;unknown
73422;BME280;61637;47.760;-122.022;2023-03-01T07:32:01;101253.06099999999;;;-0.1;unknown
73422;BME280;61637;47.760;-122.022;2023-03-01T07:34:01;101253.06099999999;;;-0.1;unknown
73422;BME280;61637;47.760;-122.022;2023-03-01T07:36:02;101253.06099999999;;;-0.1;unknown
73422;BME280;61637;47.760;-122.022;2023-03-01T07:38:01;101253.06099999999;;;-0.1;unknown
73422;BME280;61637;47.760;-122.022;2023-03-01T07:40:01;101253.06099999999;;;-0.1;unknown
73422;BME280;61637;47.760;-122.022;2023-03-01T07:42:01;101253.06099999999;;;-0.2;unknown
73422;BME280;61637;47.760;-122.022;2023-03-01T07:44:01;101253.06099999999;;;-0.2;unknown
73422;BME280;61637;47.760;-122.022;2023-03-01T07:46:01;101253.06099999999;;;-0.2;unknown
73422;BME280;61637;47.760;-122.022;2023-03-01T07:48:01;101253.06099999999;;;-0.2;unknown
73422;BME280;61637;47.760;-122.022;2023-03-01T07:50:01;101253.06099999999;;;-0.2;unknown
73422;BME280;61637;47.760;-122.022;2023-03-01T07:52:01;101253.06099999999;;;-0.3;unknown
73422;BME280;61637;47.760;-122.022;2023-03-01T07:54:01;101253.06099999999;;;-0.3;unknown
73422;BME280;61637;47.760;-122.022;2023-03-01T07:56:01;101253.06099999999;;;-0.3;unknown
73422;BME280;61637;47.760;-122.022;2023-03-01T07:58:01;101253.06099999999;;;-0.3;unknown
73422;BME280;61637;47.760;-122.022;2023-03-01T08:00:01;101253.06099999999;;;-0.3;unknown
73422;BME280;61637;47.760;-122.022;2023-03-01T08:02:01;101253.06099999999;;;-0.3;unknown
73422;BME280;61637;47.760;-122.022;2023-03-01T08:04:01;101253.06099999999;;;-0.3;unknown
73422;BME280;61637;47.760;-122.022;2023-03-01T08:06:01;101253.06099999999;;;-0.3;unknown
73422;BME280;61637;47.760;-122.022;2023-03-01T08:08:01;101253.06099999999;;;-0.3;unknown
73422;BME280;61637;47.760;-122.022;2023-03-01T08:10:01;101253.06099999999;;;-0.3;unknown
73422;BME280;61637;47.760;-122.022;2023-03-01T08:12:01;101253.06099999999;;;-0.3;unknown
73422;BME280;61637;47.760;-122.022;2023-03-01T08:14:01;101253.06099999999;;;-0.3;unknown
73422;BME280;61637;47.760;-122.022;2023-03-01T08:16:01;101253.06099999999;;;-0.4;unknown
73422;BME280;61637;47.760;-122.022;2023-03-01T08:18:01;101253.06099999999;;;-0.4;unknown
73422;BME280;61637;47.760;-122.022;2023-03-01T08:20:01;101253.06099999999;;;-0.4;unknown
73422;BME280;61637;47.760;-122.022;2023-03-01T08:22:01;101253.06099999999;;;-0.4;unknown
73422;BME280;61637;47.760;-122.022;2023-03-01T08:24:01;101253.06099999999;;;-0.5;unknown
73422;BME280;61637;47.760;-122.022;2023-03-01T08:26:05;101253.06099999999;;;-0.5;unknown
73422;BME280;61637;47.760;-122.022;2023-03-01T08:28:01;101253.06099999999;;;-0.5;unknown
73422;BME280;61637;47.760;-122.022;2023-03-01T08:30:01;101253.06099999999;;;-0.5;unknown
73422;BME280;61637;47.760;-122.022;2023-03-01T08:32:01;101253.06099999999;;;-0.5;unknown
73422;BME280;61637;47.760;-122.022;2023-03-01T08:34:01;101253.06099999999;;;-0.5;unknown
73422;BME280;61637;47.760;-122.022;2023-03-01T08:36:02;101253.06099999999;;;-0.4;unknown
73422;BME280;61637;47.760;-122.022;2023-03-01T08:38:01;101253.06099999999;;;-0.4;unknown
73422;BME280;61637;47.760;-122.022;2023-03-01T08:40:01;101253.06099999999;;;-0.4;unknown
73422;BME280;61637;47.760;-122.022;2023-03-01T08:42:01;101253.06099999999;;;-0.4;unknown
73422;BME280;61637;47.760;-122.022;2023-03-01T08:44:01;101253.06099999999;;;-0.4;unknown
73422;BME280;61637;47.760;-122.022;2023-03-01T08:46:01;101253.06099999999;;;-0.5;unknown
73422;BME280;61637;47.760;-122.022;2023-03-01T08:48:01;101253.06099999999;;;-0.5;unknown
73422;BME280;61637;47.760;-122.022;2023-03-01T08:50:01;101253.06099999999;;;-0.6;unknown
73422;BME280;61637;47.760;-122.022;2023-03-01T08:52:01;101253.06099999999;;;-0.6;unknown
73422;BME280;61637;47.760;-122.022;2023-03-01T08:54:01;101253.06099999999;;;-0.6;unknown
73422;BME280;61637;47.760;-122.022;2023-03-01T08:56:01;101253.06099999999;;;-0.6;unknown
73422;BME280;61637;47.760;-122.022;2023-03-01T08:58:01;101253.06099999999;;;-0.6;unknown
73422;BME280;61637;47.760;-122.022;2023-03-01T09:00:01;101253.06099999999;;;-0.6;unknown
73422;BME280;61637;47.760;-122.022;2023-03-01T09:02:01;101253.06099999999;;;-0.6;unknown
73422;BME280;61637;47.760;-122.022;2023-03-01T09:04:01;101253.06099999999;;;-0.6;unknown
73422;BME280;61637;47.760;-122.022;2023-03-01T09:06:01;101253.06099999999;;;-0.6;unknown
73422;BME280;61637;47.760;-122.022;2023-03-01T09:08:01;101253.06099999999;;;-0.6;unknown
73422;BME280;61637;47.760;-122.022;2023-03-01T09:10:01;101253.06099999999;;;-0.6;unknown
73422;BME280;61637;47.760;-122.022;2023-03-01T09:12:01;101253.06099999999;;;-0.6;unknown